createdAt,value
2022-11-12T00:01:19.504Z,11.80
2022-11-12T00:03:47.793Z,13.05
2022-11-12T00:06:15.758Z,13.05
2022-11-12T00:08:45.200Z,12.90
2022-11-12T00:11:14.878Z,12.13
2022-11-12T00:13:42.898Z,11.70
2022-11-12T00:16:10.924Z,11.40
2022-11-12T00:18:39.060Z,11.68
2022-11-12T00:21:07.808Z,10.77
2022-11-12T00:23:36.050Z,12.75
2022-11-12T00:26:05.806Z,11.93
2022-11-12T00:28:38.025Z,12.80
2022-11-12T00:31:14.299Z,10.60
2022-11-12T00:33:42.796Z,10.93
2022-11-12T00:36:15.803Z,10.23
2022-11-12T00:38:43.734Z,11.77
2022-11-12T00:41:13.028Z,11.77
2022-11-12T00:43:41.080Z,10.95
2022-11-12T00:46:09.083Z,10.57
2022-11-12T00:48:37.047Z,10.82
2022-11-12T00:51:07.043Z,10.73
2022-11-12T00:53:34.996Z,9.40
2022-11-12T00:56:04.385Z,10.75
2022-11-12T00:58:35.367Z,10.88
2022-11-12T01:01:07.722Z,10.18
2022-11-12T01:06:04.920Z,9.38
2022-11-12T01:08:33.207Z,10.07
2022-11-12T01:11:08.208Z,10.32
2022-11-12T01:13:44.317Z,10.15
2022-11-12T01:16:14.880Z,11.27
2022-11-12T01:18:43.844Z,10.35
2022-11-12T01:21:12.478Z,10.07
2022-11-12T01:23:43.216Z,12.02
2022-11-12T01:26:16.246Z,13.15
2022-11-12T01:28:46.151Z,9.90
2022-11-12T01:31:17.339Z,11.25
2022-11-12T01:33:47.890Z,11.13
2022-11-12T01:36:18.706Z,12.57
2022-11-12T01:38:48.757Z,12.05
2022-11-12T01:41:22.074Z,12.30
2022-11-12T01:44:09.686Z,11.65
2022-11-12T01:46:43.271Z,11.07
2022-11-12T01:49:15.532Z,10.38
2022-11-12T01:51:47.764Z,11.38
2022-11-12T01:54:19.536Z,11.30
2022-11-12T01:56:49.008Z,13.18
2022-11-12T01:59:24.536Z,13.52
2022-11-12T02:01:52.553Z,14.32
2022-11-12T02:04:21.781Z,13.43
2022-11-12T02:06:52.095Z,11.93
2022-11-12T02:09:20.731Z,13.00
2022-11-12T02:11:48.728Z,13.43
2022-11-12T02:14:17.140Z,12.88
2022-11-12T02:16:47.000Z,12.93
2022-11-12T02:19:16.512Z,13.02
2022-11-12T02:21:46.407Z,13.63
2022-11-12T02:24:34.197Z,14.40
2022-11-12T02:27:02.736Z,14.57
2022-11-12T02:29:30.720Z,13.35
2022-11-12T02:31:58.776Z,12.25
2022-11-12T02:34:26.818Z,12.65
2022-11-12T02:36:56.599Z,12.10
2022-11-12T02:39:24.714Z,12.10
2022-11-12T02:41:52.798Z,12.15
2022-11-12T02:44:20.947Z,11.93
2022-11-12T02:46:48.973Z,11.13
2022-11-12T02:49:16.913Z,10.13
2022-11-12T02:51:45.015Z,12.45
2022-11-12T02:54:14.465Z,10.85
2022-11-12T02:56:42.638Z,11.68
2022-11-12T02:59:10.715Z,11.52
2022-11-12T03:01:38.731Z,11.88
2022-11-12T03:04:07.151Z,11.15
2022-11-12T03:06:35.313Z,11.07
2022-11-12T03:09:14.235Z,10.18
2022-11-12T03:11:44.934Z,10.43
2022-11-12T03:14:13.196Z,10.02
2022-11-12T03:16:41.378Z,10.32
2022-11-12T03:19:09.454Z,9.48
2022-11-12T03:21:37.765Z,11.93
2022-11-12T03:24:06.419Z,10.93
2022-11-12T03:26:35.990Z,13.80
2022-11-12T03:29:05.893Z,11.93
2022-11-12T03:31:34.133Z,11.68
2022-11-12T03:34:02.233Z,12.30
2022-11-12T03:36:30.357Z,11.07
2022-11-12T03:38:58.414Z,12.07
2022-11-12T03:41:26.338Z,11.65
2022-11-12T03:43:54.321Z,11.80
2022-11-12T03:46:24.293Z,12.02
2022-11-12T03:48:53.348Z,12.05
2022-11-12T03:51:21.438Z,13.55
2022-11-12T03:53:49.574Z,14.32
2022-11-12T03:56:17.985Z,12.80
2022-11-12T03:58:46.269Z,11.20
2022-11-12T04:01:14.259Z,9.38
2022-11-12T04:03:47.108Z,10.18
2022-11-12T04:06:35.014Z,9.65
2022-11-12T04:09:03.658Z,9.45
2022-11-12T04:11:31.935Z,10.65
2022-11-12T04:14:00.158Z,11.38
2022-11-12T04:16:45.997Z,9.95
2022-11-12T04:19:33.020Z,10.73
2022-11-12T04:22:05.648Z,11.75
2022-11-12T04:24:53.254Z,11.73
2022-11-12T04:27:23.509Z,14.20
2022-11-12T04:30:10.482Z,14.15
2022-11-12T04:32:40.829Z,15.52
2022-11-12T04:35:13.807Z,16.10
2022-11-12T04:37:50.564Z,16.33
2022-11-12T04:40:49.109Z,15.60
2022-11-12T04:43:36.090Z,14.63
2022-11-12T04:46:05.540Z,14.90
2022-11-12T04:48:34.239Z,12.55
2022-11-12T04:51:28.602Z,11.32
2022-11-12T04:53:59.204Z,10.02
2022-11-12T04:56:27.426Z,9.02
2022-11-12T04:58:57.317Z,9.32
2022-11-12T05:01:25.691Z,8.68
2022-11-12T05:03:54.607Z,10.15
2022-11-12T05:06:41.685Z,8.90
2022-11-12T05:09:09.675Z,8.57
2022-11-12T05:11:37.885Z,9.98
2022-11-12T05:14:06.629Z,9.48
2022-11-12T05:16:34.988Z,9.65
2022-11-12T05:19:03.147Z,10.02
2022-11-12T05:21:51.620Z,9.75
2022-11-12T05:24:40.465Z,8.57
2022-11-12T05:27:11.579Z,8.55
2022-11-12T05:29:40.330Z,8.48
2022-11-12T05:32:11.519Z,10.48
2022-11-12T05:34:40.464Z,9.13
2022-11-12T05:37:12.058Z,9.05
2022-11-12T05:39:40.732Z,9.43
2022-11-12T05:42:14.076Z,8.38
2022-11-12T05:44:43.241Z,9.52
2022-11-12T05:47:11.737Z,8.93
2022-11-12T05:49:40.174Z,9.48
2022-11-12T05:52:10.202Z,7.88
2022-11-12T05:54:38.803Z,8.57
2022-11-12T05:57:07.436Z,8.18
2022-11-12T05:59:35.980Z,8.85
2022-11-12T06:02:04.714Z,8.57
2022-11-12T06:04:33.139Z,8.20
2022-11-12T06:07:04.384Z,8.77
2022-11-12T06:09:34.621Z,8.40
2022-11-12T06:12:06.572Z,9.73
2022-11-12T06:14:37.375Z,10.55
2022-11-12T06:17:07.938Z,10.05
2022-11-12T06:19:36.583Z,11.23
2022-11-12T06:22:05.377Z,11.60
2022-11-12T06:24:35.721Z,13.02
2022-11-12T06:27:04.066Z,12.68
2022-11-12T06:29:32.921Z,10.93
2022-11-12T06:32:01.418Z,9.20
2022-11-12T06:34:30.709Z,8.77
2022-11-12T06:39:45.163Z,8.73
2022-11-12T06:42:15.488Z,7.38
2022-11-12T06:44:43.991Z,8.48
2022-11-12T06:47:12.988Z,8.98
2022-11-12T06:49:42.783Z,8.38
2022-11-12T06:52:16.415Z,10.65
2022-11-12T06:54:47.441Z,9.10
2022-11-12T06:57:19.279Z,11.38
2022-11-12T06:59:47.796Z,6.45
2022-11-12T07:02:16.276Z,9.10
2022-11-12T07:04:49.535Z,8.90
2022-11-12T07:07:18.113Z,8.60
2022-11-12T07:09:50.706Z,8.70
2022-11-12T07:14:48.697Z,8.27
2022-11-12T07:17:17.011Z,9.75
2022-11-12T07:19:45.590Z,9.02
2022-11-12T07:22:14.160Z,8.18
2022-11-12T07:24:42.795Z,8.43
2022-11-12T07:27:12.577Z,7.70
2022-11-12T07:29:49.018Z,7.68
2022-11-12T07:32:17.965Z,8.85
2022-11-12T07:34:46.615Z,8.18
2022-11-12T07:37:15.021Z,9.45
2022-11-12T07:39:44.141Z,8.57
2022-11-12T07:42:15.813Z,9.98
2022-11-12T07:44:44.784Z,9.23
2022-11-12T07:47:13.437Z,10.13
2022-11-12T07:49:41.995Z,9.32
2022-11-12T07:52:10.543Z,9.30
2022-11-12T07:54:39.087Z,8.80
2022-11-12T07:57:07.683Z,10.23
2022-11-12T07:59:41.800Z,9.40
2022-11-12T08:02:13.321Z,9.73
2022-11-12T08:04:41.684Z,9.63
2022-11-12T08:07:10.281Z,10.80
2022-11-12T08:09:41.912Z,12.55
2022-11-12T08:12:10.682Z,12.43
2022-11-12T08:14:40.711Z,12.48
2022-11-12T08:17:09.514Z,11.25
2022-11-12T08:19:39.907Z,12.82
2022-11-12T08:22:09.328Z,12.60
2022-11-12T08:24:42.004Z,12.27
2022-11-12T08:27:10.413Z,13.27
2022-11-12T08:29:40.637Z,10.77
2022-11-12T08:32:12.004Z,13.43
2022-11-12T08:34:43.877Z,15.75
2022-11-12T08:37:14.613Z,12.20
2022-11-12T08:39:43.116Z,13.43
2022-11-12T08:42:14.821Z,15.13
2022-11-12T08:44:45.070Z,11.07
2022-11-12T08:47:13.728Z,14.60
2022-11-12T08:49:47.637Z,12.90
2022-11-12T08:52:16.679Z,11.73
2022-11-12T08:54:45.533Z,11.20
2022-11-12T08:57:14.098Z,11.85
2022-11-12T08:59:42.970Z,11.77
2022-11-12T09:02:17.519Z,13.13
2022-11-12T09:04:46.285Z,13.15
2022-11-12T09:07:43.343Z,13.60
2022-11-12T09:10:07.606Z,12.70
2022-11-12T09:12:38.331Z,13.05
2022-11-12T09:15:36.231Z,13.80
2022-11-12T09:18:07.463Z,13.32
2022-11-12T09:20:36.621Z,13.73
2022-11-12T09:23:07.344Z,15.30
2022-11-12T09:25:36.805Z,15.40
2022-11-12T09:28:12.071Z,18.10
2022-11-12T09:30:46.638Z,13.75
2022-11-12T09:33:18.327Z,15.40
2022-11-12T09:35:49.777Z,11.57
2022-11-12T09:38:20.665Z,11.98
2022-11-12T09:41:19.039Z,11.93
2022-11-12T09:43:51.729Z,12.45
2022-11-12T09:46:32.069Z,12.40
2022-11-12T09:49:16.236Z,11.75
2022-11-12T09:51:51.210Z,11.25
2022-11-12T09:54:24.001Z,10.93
2022-11-12T09:56:53.739Z,11.23
2022-11-12T09:59:28.796Z,10.85
2022-11-12T10:02:02.155Z,10.27
2022-11-12T10:04:47.638Z,11.07
2022-11-12T10:07:26.473Z,10.25
2022-11-12T10:10:07.477Z,9.63
2022-11-12T10:12:50.573Z,10.77
2022-11-12T10:16:06.015Z,10.70
2022-11-12T10:18:44.291Z,10.48
2022-11-12T10:21:24.772Z,10.30
2022-11-12T10:23:55.240Z,10.07
2022-11-12T10:26:28.096Z,9.85
2022-11-12T10:29:11.992Z,8.90
2022-11-12T10:31:43.275Z,9.57
2022-11-12T10:34:23.733Z,8.82
2022-11-12T10:36:59.030Z,8.43
2022-11-12T10:39:39.726Z,9.05
2022-11-12T10:42:10.883Z,9.07
2022-11-12T10:44:43.422Z,10.02
2022-11-12T10:50:06.750Z,8.13
2022-11-12T10:52:53.739Z,9.25
2022-11-12T10:55:26.403Z,9.55
2022-11-12T10:58:17.009Z,9.18
2022-11-12T11:01:01.130Z,8.48
2022-11-12T11:03:36.972Z,8.48
2022-11-12T11:06:07.751Z,8.68
2022-11-12T11:08:40.451Z,8.73
2022-11-12T11:11:30.589Z,9.10
2022-11-12T11:14:20.226Z,8.18
2022-11-12T11:16:53.245Z,8.25
2022-11-12T11:19:22.155Z,8.07
2022-11-12T11:22:24.601Z,8.20
2022-11-12T11:25:19.173Z,9.20
2022-11-12T11:27:59.086Z,9.73
2022-11-12T11:30:30.028Z,8.60
2022-11-12T11:33:25.602Z,8.82
2022-11-12T11:36:16.056Z,9.35
2022-11-12T11:38:57.713Z,10.23
2022-11-12T11:41:51.352Z,8.77
2022-11-12T11:44:30.081Z,9.30
2022-11-12T11:47:08.161Z,9.25
2022-11-12T11:50:03.947Z,9.15
2022-11-12T11:52:44.846Z,10.38
2022-11-12T11:55:36.852Z,10.15
2022-11-12T11:58:17.535Z,10.10
2022-11-12T12:00:54.228Z,11.00
2022-11-12T12:03:33.085Z,10.60
2022-11-12T12:06:21.152Z,9.75
2022-11-12T12:09:04.893Z,10.00
2022-11-12T12:11:49.480Z,10.40
2022-11-12T12:14:32.899Z,9.32
2022-11-12T12:17:17.538Z,10.52
2022-11-12T12:19:59.197Z,10.32
2022-11-12T12:22:37.061Z,9.52
2022-11-12T12:25:13.878Z,8.98
2022-11-12T12:27:51.611Z,8.63
2022-11-12T12:30:23.478Z,8.77
2022-11-12T12:33:38.653Z,9.65
2022-11-12T12:36:44.887Z,9.88
2022-11-12T12:39:49.528Z,10.63
2022-11-12T12:43:07.639Z,10.38
2022-11-12T12:47:34.651Z,9.82
2022-11-12T12:57:51.438Z,10.10
2022-11-12T13:01:28.866Z,11.48
2022-11-12T13:04:56.234Z,11.75
2022-11-12T13:08:00.993Z,11.77
2022-11-12T13:10:51.940Z,9.68
2022-11-12T13:13:32.876Z,12.65
2022-11-12T13:16:02.988Z,12.85
2022-11-12T13:19:02.474Z,11.63
2022-11-12T13:21:32.687Z,12.75
2022-11-12T13:24:09.462Z,12.43
2022-11-12T13:26:58.692Z,12.50
2022-11-12T13:29:45.260Z,12.07
2022-11-12T13:32:48.937Z,13.80
2022-11-12T13:35:37.325Z,13.02
2022-11-12T13:38:15.725Z,14.20
2022-11-12T13:40:47.311Z,12.02
2022-11-12T13:43:25.790Z,13.48
2022-11-12T13:45:58.365Z,13.70
2022-11-12T13:48:30.429Z,13.18
2022-11-12T13:51:03.995Z,13.90
2022-11-12T13:53:37.822Z,14.07
2022-11-12T13:56:06.313Z,13.38
2022-11-12T13:58:36.637Z,13.20
2022-11-12T14:01:07.143Z,13.68
2022-11-12T14:03:44.575Z,13.10
2022-11-12T14:06:19.014Z,13.45
2022-11-12T14:09:04.224Z,13.38
2022-11-12T14:11:55.478Z,15.48
2022-11-12T14:14:54.808Z,15.27
2022-11-12T14:17:44.573Z,14.07
2022-11-12T14:20:33.237Z,13.23
2022-11-12T14:23:33.350Z,14.02
2022-11-12T14:26:36.039Z,14.23
2022-11-12T14:29:24.082Z,13.77
2022-11-12T14:32:17.587Z,14.18
2022-11-12T14:34:45.708Z,14.23
2022-11-12T14:37:37.213Z,15.32
2022-11-12T14:40:17.551Z,13.65
2022-11-12T14:42:49.896Z,15.48
2022-11-12T14:47:55.107Z,16.45
2022-11-12T14:50:29.592Z,16.10
2022-11-12T14:53:05.194Z,17.52
2022-11-12T14:55:39.693Z,17.90
2022-11-12T14:58:17.788Z,15.55
2022-11-12T15:01:01.430Z,19.30
2022-11-12T15:03:37.924Z,16.75
2022-11-12T15:06:13.254Z,16.40
2022-11-12T15:08:42.264Z,17.63
2022-11-12T15:11:24.610Z,19.17
2022-11-12T15:14:01.200Z,18.58
2022-11-12T15:16:32.117Z,16.58
2022-11-12T15:19:20.203Z,19.25
2022-11-12T15:21:52.779Z,22.55
2022-11-12T15:24:30.222Z,20.27
2022-11-12T15:27:00.685Z,18.48
2022-11-12T15:29:33.559Z,19.40
2022-11-12T15:32:11.019Z,18.67
2022-11-12T15:34:49.668Z,18.13
2022-11-12T15:37:25.626Z,20.52
2022-11-12T15:40:00.171Z,19.13
2022-11-12T15:42:32.009Z,20.27
2022-11-12T15:45:06.421Z,17.33
2022-11-12T15:47:34.872Z,19.55
2022-11-12T15:50:15.907Z,19.13
2022-11-12T15:52:44.607Z,18.30
2022-11-12T15:55:14.295Z,18.13
2022-11-12T15:57:45.579Z,20.27
2022-11-12T16:00:19.267Z,23.20
2022-11-12T16:02:50.878Z,19.48
2022-11-12T16:05:21.110Z,20.35
2022-11-12T16:07:52.016Z,21.05
2022-11-12T16:10:21.063Z,21.15
2022-11-12T16:12:49.830Z,18.92
2022-11-12T16:15:23.326Z,19.05
2022-11-12T16:17:51.752Z,18.33
2022-11-12T16:20:22.644Z,22.13
2022-11-12T16:22:58.573Z,19.92
2022-11-12T16:25:31.035Z,19.42
2022-11-12T16:30:31.259Z,18.60
2022-11-12T16:33:01.037Z,17.95
2022-11-12T16:35:33.113Z,18.92
2022-11-12T16:38:03.502Z,20.58
2022-11-12T16:40:32.819Z,20.20
2022-11-12T16:43:01.597Z,20.02
2022-11-12T16:45:39.439Z,17.23
2022-11-12T16:48:16.203Z,18.10
2022-11-12T16:50:44.874Z,20.23
2022-11-12T16:53:13.292Z,16.92
2022-11-12T16:55:43.384Z,17.17
2022-11-12T16:58:14.674Z,15.50
2022-11-12T17:00:46.764Z,16.60
2022-11-12T17:03:16.401Z,15.05
2022-11-12T17:05:44.751Z,15.63
2022-11-12T17:08:14.500Z,15.27
2022-11-12T17:10:42.950Z,15.82
2022-11-12T17:13:14.747Z,18.45
2022-11-12T17:15:48.766Z,15.48
2022-11-12T17:18:20.140Z,15.00
2022-11-12T17:20:51.331Z,15.82
2022-11-12T17:23:20.019Z,16.42
2022-11-12T17:25:51.029Z,16.20
2022-11-12T17:28:19.521Z,15.80
2022-11-12T17:30:49.097Z,15.48
2022-11-12T17:33:20.505Z,14.90
2022-11-12T17:35:51.867Z,15.57
2022-11-12T17:38:24.557Z,15.68
2022-11-12T17:40:57.791Z,15.35
2022-11-12T17:43:26.790Z,16.30
2022-11-12T17:52:20.720Z,16.05
2022-11-12T17:54:48.999Z,14.95
2022-11-12T17:57:17.106Z,13.98
2022-11-12T17:59:47.815Z,15.73
2022-11-12T18:02:17.162Z,14.43
2022-11-12T18:04:45.480Z,14.75
2022-11-12T18:07:13.788Z,14.00
2022-11-12T18:09:41.938Z,15.35
2022-11-12T18:12:12.978Z,13.65
2022-11-12T18:14:42.507Z,15.07
2022-11-12T18:17:11.809Z,14.90
2022-11-12T18:19:41.927Z,14.63
2022-11-12T18:22:12.972Z,16.23
2022-11-12T18:24:41.561Z,16.20
2022-11-12T18:27:11.635Z,16.10
2022-11-12T18:29:40.459Z,14.43
2022-11-12T18:32:10.122Z,13.57
2022-11-12T18:34:48.335Z,15.82
2022-11-12T18:37:25.545Z,17.75
2022-11-12T18:40:00.879Z,17.42
2022-11-12T18:42:39.178Z,18.00
2022-11-12T18:45:16.231Z,14.98
2022-11-12T18:47:58.942Z,14.35
2022-11-12T18:50:29.039Z,13.38
2022-11-12T18:53:02.482Z,13.18
2022-11-12T18:55:33.237Z,13.88
2022-11-12T18:58:01.396Z,14.40
2022-11-12T19:00:29.629Z,13.75
2022-11-12T19:02:58.360Z,12.73
2022-11-12T19:05:28.234Z,14.27
2022-11-12T19:07:57.687Z,14.48
2022-11-12T19:10:26.104Z,15.48
2022-11-12T19:12:55.226Z,14.77
2022-11-12T19:15:26.952Z,15.75
2022-11-12T19:17:55.605Z,14.57
2022-11-12T19:20:24.028Z,16.30
2022-11-12T19:22:54.574Z,16.23
2022-11-12T19:25:23.174Z,16.98
2022-11-12T19:27:51.354Z,16.20
2022-11-12T19:30:19.466Z,16.25
2022-11-12T19:32:47.706Z,16.33
2022-11-12T19:35:15.965Z,17.27
2022-11-12T19:37:44.579Z,16.77
2022-11-12T19:40:17.318Z,16.85
2022-11-12T19:42:48.041Z,17.30
2022-11-12T19:45:19.241Z,16.05
2022-11-12T19:47:47.694Z,14.52
2022-11-12T19:50:15.866Z,15.70
2022-11-12T19:52:43.982Z,15.02
2022-11-12T19:55:13.556Z,15.05
2022-11-12T19:57:45.133Z,17.13
2022-11-12T20:00:14.490Z,17.33
2022-11-12T20:02:42.892Z,17.13
2022-11-12T20:05:11.339Z,16.75
2022-11-12T20:07:39.682Z,16.08
2022-11-12T20:10:08.399Z,17.38
2022-11-12T20:12:40.079Z,16.27
2022-11-12T20:15:09.107Z,17.98
2022-11-12T20:17:39.168Z,16.35
2022-11-12T20:20:09.395Z,19.25
2022-11-12T20:22:37.647Z,17.95
2022-11-12T20:25:06.488Z,16.05
2022-11-12T20:27:34.615Z,15.90
2022-11-12T20:30:08.536Z,17.50
2022-11-12T20:32:37.950Z,17.83
2022-11-12T20:35:14.166Z,15.90
2022-11-12T20:37:48.187Z,17.13
2022-11-12T20:40:17.001Z,15.38
2022-11-12T20:42:47.478Z,16.70
2022-11-12T20:45:17.024Z,16.35
2022-11-12T20:47:45.182Z,14.73
2022-11-12T20:50:13.506Z,16.00
2022-11-12T20:52:41.752Z,13.73
2022-11-12T20:55:10.531Z,15.32
2022-11-12T20:57:38.775Z,14.43
2022-11-12T21:00:13.295Z,14.32
2022-11-12T21:02:43.618Z,14.20
2022-11-12T21:05:12.201Z,15.48
2022-11-12T21:07:40.405Z,14.18
2022-11-12T21:10:09.514Z,14.68
2022-11-12T21:12:37.760Z,16.45
2022-11-12T21:15:07.490Z,15.80
2022-11-12T21:17:35.545Z,13.90
2022-11-12T21:20:08.290Z,15.55
2022-11-12T21:22:36.914Z,14.73
2022-11-12T21:25:05.595Z,14.93
2022-11-12T21:27:34.059Z,16.10
2022-11-12T21:30:02.514Z,16.05
2022-11-12T21:32:30.552Z,16.20
2022-11-12T21:34:58.791Z,17.60
2022-11-12T21:37:28.391Z,16.42
2022-11-12T21:39:56.347Z,15.20
2022-11-12T21:42:24.480Z,16.35
2022-11-12T21:44:53.902Z,16.83
2022-11-12T21:47:24.508Z,17.20
2022-11-12T21:49:53.068Z,18.40
2022-11-12T21:52:21.373Z,18.75
2022-11-12T21:54:52.251Z,19.10
2022-11-12T21:57:20.336Z,18.88
2022-11-12T21:59:50.530Z,18.95
2022-11-12T22:02:18.641Z,19.45
2022-11-12T22:04:49.018Z,18.50
2022-11-12T22:07:17.801Z,18.42
2022-11-12T22:09:46.194Z,18.63
2022-11-12T22:12:18.757Z,18.08
2022-11-12T22:17:14.808Z,17.55
2022-11-12T22:19:42.854Z,17.05
2022-11-12T22:22:10.960Z,19.23
2022-11-12T22:24:39.113Z,20.73
2022-11-12T22:27:07.342Z,17.65
2022-11-12T22:29:36.880Z,17.88
2022-11-12T22:32:05.611Z,19.00
2022-11-12T22:34:33.639Z,18.08
2022-11-12T22:37:01.697Z,17.88
2022-11-12T22:39:29.907Z,18.02
2022-11-12T22:41:58.005Z,16.85
2022-11-12T22:44:26.159Z,17.10
2022-11-12T22:46:55.687Z,18.80
2022-11-12T22:49:23.807Z,16.65
2022-11-12T22:51:51.820Z,17.92
2022-11-12T22:54:19.775Z,18.45
2022-11-12T22:56:47.802Z,16.98
2022-11-12T22:59:15.976Z,19.00
2022-11-12T23:01:44.598Z,17.30
2022-11-12T23:04:14.218Z,17.73
2022-11-12T23:06:42.456Z,19.55
2022-11-12T23:09:16.364Z,21.13
2022-11-12T23:11:44.518Z,19.90
2022-11-12T23:14:12.585Z,20.05
2022-11-12T23:16:40.789Z,18.88
2022-11-12T23:19:08.865Z,19.05
2022-11-12T23:21:38.723Z,21.15
2022-11-12T23:24:07.738Z,21.02
2022-11-12T23:26:36.353Z,20.23
2022-11-12T23:29:04.557Z,20.13
2022-11-12T23:31:33.541Z,20.27
2022-11-12T23:34:02.295Z,19.92
2022-11-12T23:36:31.462Z,19.73
2022-11-12T23:39:01.766Z,20.58
2022-11-12T23:41:33.031Z,22.10
2022-11-12T23:44:01.540Z,21.02
2022-11-12T23:46:29.858Z,20.27
2022-11-12T23:48:59.070Z,19.63
2022-11-12T23:51:27.490Z,17.88
2022-11-12T23:53:55.460Z,15.95
2022-11-12T23:56:25.371Z,17.63
2022-11-12T23:58:55.566Z,18.15
